sensor_id;sensor_type;location;lat;lon;timestamp;pressure;altitude;pressure_sealevel;temperature;humidity
73817;BME280;62146;53.232;-1.304;2022-10-16T00:01:15;98875.16;;;11.38;74.66
73817;BME280;62146;53.232;-1.304;2022-10-16T00:03:43;98877.56;;;11.35;74.50
73817;BME280;62146;53.232;-1.304;2022-10-16T00:06:10;98872.84;;;11.27;74.92
73817;BME280;62146;53.232;-1.304;2022-10-16T00:08:38;98873.13;;;11.25;75.11
73817;BME280;62146;53.232;-1.304;2022-10-16T00:11:05;98872.06;;;11.26;74.96
73817;BME280;62146;53.232;-1.304;2022-10-16T00:13:33;98879.78;;;11.23;75.12
73817;BME280;62146;53.232;-1.304;2022-10-16T00:16:01;98874.28;;;11.20;75.21
73817;BME280;62146;53.232;-1.304;2022-10-16T00:18:29;98875.06;;;11.20;75.13
73817;BME280;62146;53.232;-1.304;2022-10-16T00:21:00;98878.25;;;11.17;75.20
73817;BME280;62146;53.232;-1.304;2022-10-16T00:23:27;98879.91;;;11.13;75.43
73817;BME280;62146;53.232;-1.304;2022-10-16T00:26:00;98870.63;;;11.11;75.28
73817;BME280;62146;53.232;-1.304;2022-10-16T00:28:27;98869.91;;;11.05;75.80
73817;BME280;62146;53.232;-1.304;2022-10-16T00:30:54;98860.56;;;11.08;75.81
73817;BME280;62146;53.232;-1.304;2022-10-16T00:33:21;98868.25;;;11.09;75.62
73817;BME280;62146;53.232;-1.304;2022-10-16T00:35:48;98867.47;;;11.09;75.65
73817;BME280;62146;53.232;-1.304;2022-10-16T00:38:14;98877.06;;;11.05;75.98
73817;BME280;62146;53.232;-1.304;2022-10-16T00:40:41;98885.28;;;11.03;75.79
73817;BME280;62146;53.232;-1.304;2022-10-16T00:45:58;98876.31;;;10.99;75.80
73817;BME280;62146;53.232;-1.304;2022-10-16T00:48:24;98889.00;;;11.02;75.73
73817;BME280;62146;53.232;-1.304;2022-10-16T00:50:52;98887.69;;;11.00;75.94
73817;BME280;62146;53.232;-1.304;2022-10-16T00:53:19;98897.81;;;10.98;75.91
73817;BME280;62146;53.232;-1.304;2022-10-16T00:55:45;98895.41;;;10.96;76.07
73817;BME280;62146;53.232;-1.304;2022-10-16T00:58:12;98898.06;;;10.96;76.00
73817;BME280;62146;53.232;-1.304;2022-10-16T01:00:39;98904.22;;;10.92;76.33
73817;BME280;62146;53.232;-1.304;2022-10-16T01:03:29;98905.00;;;10.93;76.40
73817;BME280;62146;53.232;-1.304;2022-10-16T01:09:11;98915.34;;;10.94;76.49
73817;BME280;62146;53.232;-1.304;2022-10-16T01:11:53;98936.81;;;10.93;76.49
73817;BME280;62146;53.232;-1.304;2022-10-16T01:14:35;98936.03;;;10.92;76.41
73817;BME280;62146;53.232;-1.304;2022-10-16T01:17:12;98942.41;;;10.91;76.58
73817;BME280;62146;53.232;-1.304;2022-10-16T01:22:41;98943.50;;;10.90;76.51
73817;BME280;62146;53.232;-1.304;2022-10-16T01:25:16;98935.53;;;10.90;76.53
73817;BME280;62146;53.232;-1.304;2022-10-16T01:27:45;98930.50;;;10.89;76.87
73817;BME280;62146;53.232;-1.304;2022-10-16T01:30:18;98926.78;;;10.90;76.61
73817;BME280;62146;53.232;-1.304;2022-10-16T01:32:51;98912.75;;;10.89;76.73
73817;BME280;62146;53.232;-1.304;2022-10-16T01:38:24;98921.19;;;10.91;76.43
73817;BME280;62146;53.232;-1.304;2022-10-16T01:40:59;98926.22;;;10.93;76.53
73817;BME280;62146;53.232;-1.304;2022-10-16T01:43:39;98931.81;;;10.91;76.53
73817;BME280;62146;53.232;-1.304;2022-10-16T01:46:09;98948.75;;;10.95;76.54
73817;BME280;62146;53.232;-1.304;2022-10-16T01:48:37;98943.97;;;10.97;76.37
73817;BME280;62146;53.232;-1.304;2022-10-16T01:51:09;98933.38;;;10.97;76.23
73817;BME280;62146;53.232;-1.304;2022-10-16T01:53:38;98945.56;;;10.98;76.34
73817;BME280;62146;53.232;-1.304;2022-10-16T01:56:09;98936.81;;;10.97;76.27
73817;BME280;62146;53.232;-1.304;2022-10-16T01:58:41;98940.78;;;10.95;76.51
73817;BME280;62146;53.232;-1.304;2022-10-16T02:01:11;98955.09;;;10.99;76.23
73817;BME280;62146;53.232;-1.304;2022-10-16T02:03:40;98947.66;;;11.01;76.23
73817;BME280;62146;53.232;-1.304;2022-10-16T02:06:09;98954.84;;;11.00;76.50
73817;BME280;62146;53.232;-1.304;2022-10-16T02:08:36;98954.31;;;10.98;76.17
73817;BME280;62146;53.232;-1.304;2022-10-16T02:11:03;98960.44;;;10.94;76.51
73817;BME280;62146;53.232;-1.304;2022-10-16T02:13:38;98972.66;;;10.90;76.81
73817;BME280;62146;53.232;-1.304;2022-10-16T02:16:06;98994.38;;;10.92;76.34
73817;BME280;62146;53.232;-1.304;2022-10-16T02:18:33;98989.66;;;10.89;76.61
73817;BME280;62146;53.232;-1.304;2022-10-16T02:21:05;98988.06;;;10.88;76.43
73817;BME280;62146;53.232;-1.304;2022-10-16T02:23:40;98993.66;;;10.87;76.32
73817;BME280;62146;53.232;-1.304;2022-10-16T02:26:13;98999.22;;;10.85;76.32
73817;BME280;62146;53.232;-1.304;2022-10-16T02:28:52;99011.44;;;10.81;76.08
73817;BME280;62146;53.232;-1.304;2022-10-16T02:31:26;99015.69;;;10.77;76.11
73817;BME280;62146;53.232;-1.304;2022-10-16T02:33:56;99018.13;;;10.74;76.16
73817;BME280;62146;53.232;-1.304;2022-10-16T02:36:25;99028.19;;;10.72;76.28
73817;BME280;62146;53.232;-1.304;2022-10-16T02:38:53;99027.69;;;10.70;76.24
73817;BME280;62146;53.232;-1.304;2022-10-16T02:41:21;99039.63;;;10.68;76.21
73817;BME280;62146;53.232;-1.304;2022-10-16T02:43:48;99052.09;;;10.62;76.42
73817;BME280;62146;53.232;-1.304;2022-10-16T02:46:16;99056.59;;;10.62;76.21
73817;BME280;62146;53.232;-1.304;2022-10-16T02:48:43;99061.13;;;10.61;76.18
73817;BME280;62146;53.232;-1.304;2022-10-16T02:51:10;99067.25;;;10.57;76.32
73817;BME280;62146;53.232;-1.304;2022-10-16T02:53:36;99067.25;;;10.57;76.26
73817;BME280;62146;53.232;-1.304;2022-10-16T02:56:03;99069.38;;;10.55;76.13
73817;BME280;62146;53.232;-1.304;2022-10-16T02:58:30;99068.06;;;10.52;76.18
73817;BME280;62146;53.232;-1.304;2022-10-16T03:00:56;99072.56;;;10.52;76.05
73817;BME280;62146;53.232;-1.304;2022-10-16T03:03:23;99072.81;;;10.50;76.27
73817;BME280;62146;53.232;-1.304;2022-10-16T03:05:49;99082.13;;;10.48;76.11
73817;BME280;62146;53.232;-1.304;2022-10-16T03:08:16;99085.59;;;10.43;76.14
73817;BME280;62146;53.232;-1.304;2022-10-16T03:10:43;99088.50;;;10.42;76.16
73817;BME280;62146;53.232;-1.304;2022-10-16T03:13:10;99091.44;;;10.41;76.19
73817;BME280;62146;53.232;-1.304;2022-10-16T03:15:36;99098.06;;;10.38;76.29
73817;BME280;62146;53.232;-1.304;2022-10-16T03:18:03;99111.59;;;10.37;76.04
73817;BME280;62146;53.232;-1.304;2022-10-16T03:20:29;99109.47;;;10.29;76.34
73817;BME280;62146;53.232;-1.304;2022-10-16T03:22:56;99120.09;;;10.29;76.44
73817;BME280;62146;53.232;-1.304;2022-10-16T03:25:22;99124.03;;;10.31;76.24
73817;BME280;62146;53.232;-1.304;2022-10-16T03:27:49;99124.59;;;10.28;76.31
73817;BME280;62146;53.232;-1.304;2022-10-16T03:30:15;99132.78;;;10.27;76.24
73817;BME280;62146;53.232;-1.304;2022-10-16T03:32:44;99133.59;;;10.22;76.10
73817;BME280;62146;53.232;-1.304;2022-10-16T03:35:11;99130.94;;;10.22;76.29
73817;BME280;62146;53.232;-1.304;2022-10-16T03:37:37;99139.19;;;10.21;76.57
73817;BME280;62146;53.232;-1.304;2022-10-16T03:40:04;99146.56;;;10.24;76.31
73817;BME280;62146;53.232;-1.304;2022-10-16T03:42:31;99162.75;;;10.22;76.27
73817;BME280;62146;53.232;-1.304;2022-10-16T03:44:57;99159.53;;;10.20;76.30
73817;BME280;62146;53.232;-1.304;2022-10-16T03:47:24;99160.09;;;10.17;76.42
73817;BME280;62146;53.232;-1.304;2022-10-16T03:49:50;99171.22;;;10.15;76.49
73817;BME280;62146;53.232;-1.304;2022-10-16T03:52:17;99176.53;;;10.15;76.52
73817;BME280;62146;53.232;-1.304;2022-10-16T03:54:49;99183.13;;;10.12;76.69
73817;BME280;62146;53.232;-1.304;2022-10-16T03:57:15;99186.84;;;10.11;76.74
73817;BME280;62146;53.232;-1.304;2022-10-16T03:59:42;99197.19;;;10.08;76.94
73817;BME280;62146;53.232;-1.304;2022-10-16T04:02:09;99199.31;;;10.06;76.87
73817;BME280;62146;53.232;-1.304;2022-10-16T04:04:36;99214.66;;;10.09;76.76
73817;BME280;62146;53.232;-1.304;2022-10-16T04:07:02;99212.00;;;10.04;76.77
73817;BME280;62146;53.232;-1.304;2022-10-16T04:09:29;99222.59;;;10.04;76.88
73817;BME280;62146;53.232;-1.304;2022-10-16T04:11:55;99238.25;;;10.05;76.83
73817;BME280;62146;53.232;-1.304;2022-10-16T04:14:22;99238.78;;;10.07;76.67
73817;BME280;62146;53.232;-1.304;2022-10-16T04:16:48;99246.44;;;10.04;76.57
73817;BME280;62146;53.232;-1.304;2022-10-16T04:19:15;99250.69;;;10.05;76.66
73817;BME280;62146;53.232;-1.304;2022-10-16T04:21:41;99259.41;;;10.00;76.71
73817;BME280;62146;53.232;-1.304;2022-10-16T04:24:08;99257.56;;;9.96;76.72
73817;BME280;62146;53.232;-1.304;2022-10-16T04:26:34;99269.75;;;9.97;76.82
73817;BME280;62146;53.232;-1.304;2022-10-16T04:29:01;99275.59;;;9.94;76.79
73817;BME280;62146;53.232;-1.304;2022-10-16T04:31:27;99281.41;;;9.91;76.80
73817;BME280;62146;53.232;-1.304;2022-10-16T04:33:54;99286.94;;;9.89;76.76
73817;BME280;62146;53.232;-1.304;2022-10-16T04:36:21;99293.56;;;9.87;76.96
73817;BME280;62146;53.232;-1.304;2022-10-16T04:38:52;99302.78;;;9.85;76.60
73817;BME280;62146;53.232;-1.304;2022-10-16T04:41:18;99305.72;;;9.83;76.71
73817;BME280;62146;53.232;-1.304;2022-10-16T04:43:45;99314.69;;;9.82;76.91
73817;BME280;62146;53.232;-1.304;2022-10-16T04:46:11;99325.81;;;9.79;76.72
73817;BME280;62146;53.232;-1.304;2022-10-16T04:48:38;99326.84;;;9.73;77.02
73817;BME280;62146;53.232;-1.304;2022-10-16T04:51:04;99332.16;;;9.73;77.15
73817;BME280;62146;53.232;-1.304;2022-10-16T04:53:31;99342.72;;;9.73;77.09
73817;BME280;62146;53.232;-1.304;2022-10-16T04:55:57;99344.59;;;9.73;77.20
73817;BME280;62146;53.232;-1.304;2022-10-16T04:58:24;99355.97;;;9.73;76.99
73817;BME280;62146;53.232;-1.304;2022-10-16T05:00:50;99356.75;;;9.69;77.04
73817;BME280;62146;53.232;-1.304;2022-10-16T05:03:17;99372.34;;;9.65;77.07
73817;BME280;62146;53.232;-1.304;2022-10-16T05:05:45;99376.84;;;9.65;77.17
73817;BME280;62146;53.232;-1.304;2022-10-16T05:08:13;99381.59;;;9.63;76.82
73817;BME280;62146;53.232;-1.304;2022-10-16T05:10:42;99383.97;;;9.60;76.90
73817;BME280;62146;53.232;-1.304;2022-10-16T05:13:09;99386.06;;;9.58;77.09
73817;BME280;62146;53.232;-1.304;2022-10-16T05:15:36;99395.06;;;9.57;76.98
73817;BME280;62146;53.232;-1.304;2022-10-16T05:18:02;99390.03;;;9.55;76.82
73817;BME280;62146;53.232;-1.304;2022-10-16T05:20:29;99390.78;;;9.51;76.97
73817;BME280;62146;53.232;-1.304;2022-10-16T05:22:56;99401.88;;;9.48;76.98
73817;BME280;62146;53.232;-1.304;2022-10-16T05:25:22;99408.75;;;9.44;76.89
73817;BME280;62146;53.232;-1.304;2022-10-16T05:27:49;99411.94;;;9.41;77.02
73817;BME280;62146;53.232;-1.304;2022-10-16T05:30:17;99415.59;;;9.40;76.92
73817;BME280;62146;53.232;-1.304;2022-10-16T05:32:48;99433.03;;;9.36;76.96
73817;BME280;62146;53.232;-1.304;2022-10-16T05:35:16;99438.59;;;9.35;77.12
73817;BME280;62146;53.232;-1.304;2022-10-16T05:37:43;99442.03;;;9.35;76.90
73817;BME280;62146;53.232;-1.304;2022-10-16T05:40:10;99446.50;;;9.30;77.07
73817;BME280;62146;53.232;-1.304;2022-10-16T05:42:37;99453.59;;;9.24;76.97
73817;BME280;62146;53.232;-1.304;2022-10-16T05:45:05;99453.88;;;9.23;77.16
73817;BME280;62146;53.232;-1.304;2022-10-16T05:47:32;99455.94;;;9.21;77.23
73817;BME280;62146;53.232;-1.304;2022-10-16T05:49:58;99460.16;;;9.17;76.90
73817;BME280;62146;53.232;-1.304;2022-10-16T05:52:26;99463.56;;;9.12;77.16
73817;BME280;62146;53.232;-1.304;2022-10-16T05:54:53;99463.81;;;9.11;77.25
73817;BME280;62146;53.232;-1.304;2022-10-16T05:57:19;99474.41;;;9.11;77.09
73817;BME280;62146;53.232;-1.304;2022-10-16T05:59:46;99489.19;;;9.07;77.00
73817;BME280;62146;53.232;-1.304;2022-10-16T06:02:13;99482.03;;;9.08;76.85
73817;BME280;62146;53.232;-1.304;2022-10-16T06:04:40;99490.72;;;9.03;76.92
73817;BME280;62146;53.232;-1.304;2022-10-16T06:07:07;99490.44;;;9.00;77.05
73817;BME280;62146;53.232;-1.304;2022-10-16T06:09:33;99494.13;;;8.99;76.89
73817;BME280;62146;53.232;-1.304;2022-10-16T06:12:00;99503.59;;;8.95;77.26
73817;BME280;62146;53.232;-1.304;2022-10-16T06:14:27;99500.16;;;8.94;76.93
73817;BME280;62146;53.232;-1.304;2022-10-16T06:16:53;99501.69;;;8.90;76.84
73817;BME280;62146;53.232;-1.304;2022-10-16T06:19:20;99514.91;;;8.90;76.79
73817;BME280;62146;53.232;-1.304;2022-10-16T06:21:47;99519.09;;;8.86;76.92
73817;BME280;62146;53.232;-1.304;2022-10-16T06:24:14;99528.34;;;8.84;76.82
73817;BME280;62146;53.232;-1.304;2022-10-16T06:26:40;99533.88;;;8.82;76.92
73817;BME280;62146;53.232;-1.304;2022-10-16T06:29:08;99531.44;;;8.76;76.86
73817;BME280;62146;53.232;-1.304;2022-10-16T06:31:34;99539.59;;;8.75;76.77
73817;BME280;62146;53.232;-1.304;2022-10-16T06:34:01;99544.91;;;8.75;76.83
73817;BME280;62146;53.232;-1.304;2022-10-16T06:36:28;99543.31;;;8.74;76.29
73817;BME280;62146;53.232;-1.304;2022-10-16T06:38:54;99544.84;;;8.70;76.73
73817;BME280;62146;53.232;-1.304;2022-10-16T06:41:22;99547.19;;;8.66;76.90
73817;BME280;62146;53.232;-1.304;2022-10-16T06:43:50;99552.97;;;8.63;76.82
73817;BME280;62146;53.232;-1.304;2022-10-16T06:46:19;99564.59;;;8.62;76.73
73817;BME280;62146;53.232;-1.304;2022-10-16T06:48:47;99564.00;;;8.60;76.93
73817;BME280;62146;53.232;-1.304;2022-10-16T06:51:16;99566.13;;;8.58;76.95
73817;BME280;62146;53.232;-1.304;2022-10-16T06:53:51;99576.13;;;8.56;77.17
73817;BME280;62146;53.232;-1.304;2022-10-16T06:56:33;99585.09;;;8.55;77.17
73817;BME280;62146;53.232;-1.304;2022-10-16T06:59:00;99588.81;;;8.55;77.16
73817;BME280;62146;53.232;-1.304;2022-10-16T07:01:28;99588.00;;;8.54;77.47
73817;BME280;62146;53.232;-1.304;2022-10-16T07:03:54;99590.06;;;8.52;77.39
73817;BME280;62146;53.232;-1.304;2022-10-16T07:06:23;99601.69;;;8.51;77.63
73817;BME280;62146;53.232;-1.304;2022-10-16T07:08:50;99600.91;;;8.51;77.67
73817;BME280;62146;53.232;-1.304;2022-10-16T07:11:20;99608.34;;;8.54;77.88
73817;BME280;62146;53.232;-1.304;2022-10-16T07:13:47;99605.13;;;8.52;77.84
73817;BME280;62146;53.232;-1.304;2022-10-16T07:16:23;99614.91;;;8.51;77.59
73817;BME280;62146;53.232;-1.304;2022-10-16T07:18:49;99623.41;;;8.53;77.68
73817;BME280;62146;53.232;-1.304;2022-10-16T07:21:21;99629.97;;;8.51;77.67
73817;BME280;62146;53.232;-1.304;2022-10-16T07:23:57;99635.00;;;8.52;77.86
73817;BME280;62146;53.232;-1.304;2022-10-16T07:26:25;99637.63;;;8.52;77.52
73817;BME280;62146;53.232;-1.304;2022-10-16T07:28:52;99644.78;;;8.52;77.63
73817;BME280;62146;53.232;-1.304;2022-10-16T07:31:20;99653.50;;;8.52;77.68
73817;BME280;62146;53.232;-1.304;2022-10-16T07:33:48;99662.00;;;8.54;77.67
73817;BME280;62146;53.232;-1.304;2022-10-16T07:36:16;99661.50;;;8.57;77.65
73817;BME280;62146;53.232;-1.304;2022-10-16T07:38:44;99676.06;;;8.59;77.84
73817;BME280;62146;53.232;-1.304;2022-10-16T07:41:16;99667.34;;;8.59;77.54
73817;BME280;62146;53.232;-1.304;2022-10-16T07:43:51;99675.88;;;8.66;77.38
73817;BME280;62146;53.232;-1.304;2022-10-16T07:46:19;99682.03;;;8.71;77.09
73817;BME280;62146;53.232;-1.304;2022-10-16T07:48:46;99691.84;;;8.76;76.84
73817;BME280;62146;53.232;-1.304;2022-10-16T07:51:16;99693.78;;;8.80;77.06
73817;BME280;62146;53.232;-1.304;2022-10-16T07:53:43;99691.22;;;8.85;77.07
73817;BME280;62146;53.232;-1.304;2022-10-16T07:56:10;99712.72;;;8.93;76.52
73817;BME280;62146;53.232;-1.304;2022-10-16T07:58:38;99711.97;;;8.98;75.80
73817;BME280;62146;53.232;-1.304;2022-10-16T08:01:07;99720.28;;;9.06;76.07
73817;BME280;62146;53.232;-1.304;2022-10-16T08:03:34;99718.03;;;9.14;76.19
73817;BME280;62146;53.232;-1.304;2022-10-16T08:06:01;99713.88;;;9.23;76.30
73817;BME280;62146;53.232;-1.304;2022-10-16T08:08:28;99718.75;;;9.31;75.79
73817;BME280;62146;53.232;-1.304;2022-10-16T08:10:55;99720.94;;;9.39;75.93
73817;BME280;62146;53.232;-1.304;2022-10-16T08:13:22;99722.34;;;9.46;75.52
73817;BME280;62146;53.232;-1.304;2022-10-16T08:15:49;99723.75;;;9.54;75.59
73817;BME280;62146;53.232;-1.304;2022-10-16T08:18:15;99729.16;;;9.63;75.90
73817;BME280;62146;53.232;-1.304;2022-10-16T08:20:42;99734.31;;;9.75;75.95
73817;BME280;62146;53.232;-1.304;2022-10-16T08:23:11;99733.88;;;9.83;76.39
73817;BME280;62146;53.232;-1.304;2022-10-16T08:25:37;99734.28;;;9.96;76.75
73817;BME280;62146;53.232;-1.304;2022-10-16T08:28:06;99729.88;;;10.06;77.03
73817;BME280;62146;53.232;-1.304;2022-10-16T08:30:33;99736.03;;;10.16;77.45
73817;BME280;62146;53.232;-1.304;2022-10-16T08:33:01;99756.03;;;10.29;77.99
73817;BME280;62146;53.232;-1.304;2022-10-16T08:35:28;99765.94;;;10.43;78.56
73817;BME280;62146;53.232;-1.304;2022-10-16T08:37:54;99771.63;;;10.56;78.74
73817;BME280;62146;53.232;-1.304;2022-10-16T08:40:29;99783.41;;;10.75;79.10
73817;BME280;62146;53.232;-1.304;2022-10-16T08:48:30;99795.94;;;11.30;79.76
73817;BME280;62146;53.232;-1.304;2022-10-16T08:51:02;99794.72;;;11.47;80.38
73817;BME280;62146;53.232;-1.304;2022-10-16T08:53:36;99793.19;;;11.66;80.38
73817;BME280;62146;53.232;-1.304;2022-10-16T08:56:07;99788.19;;;11.84;80.64
73817;BME280;62146;53.232;-1.304;2022-10-16T08:58:33;99788.50;;;12.02;80.90
73817;BME280;62146;53.232;-1.304;2022-10-16T09:01:03;99809.00;;;12.21;81.35
73817;BME280;62146;53.232;-1.304;2022-10-16T09:06:21;99802.66;;;12.61;83.67
73817;BME280;62146;53.232;-1.304;2022-10-16T09:09:20;99796.03;;;12.84;84.49
73817;BME280;62146;53.232;-1.304;2022-10-16T09:19:50;99815.78;;;13.60;85.87
73817;BME280;62146;53.232;-1.304;2022-10-16T09:22:18;99810.91;;;13.76;86.30
73817;BME280;62146;53.232;-1.304;2022-10-16T09:24:48;99808.41;;;13.90;86.67
73817;BME280;62146;53.232;-1.304;2022-10-16T09:27:14;99812.66;;;14.05;86.89
73817;BME280;62146;53.232;-1.304;2022-10-16T09:29:41;99814.94;;;14.21;86.81
73817;BME280;62146;53.232;-1.304;2022-10-16T09:32:14;99806.84;;;14.36;86.99
73817;BME280;62146;53.232;-1.304;2022-10-16T09:34:45;99812.84;;;14.51;87.14
73817;BME280;62146;53.232;-1.304;2022-10-16T09:37:18;99813.53;;;14.67;87.31
73817;BME280;62146;53.232;-1.304;2022-10-16T09:39:52;99813.41;;;14.81;87.44
73817;BME280;62146;53.232;-1.304;2022-10-16T09:42:31;99818.88;;;14.95;87.49
73817;BME280;62146;53.232;-1.304;2022-10-16T09:44:59;99820.91;;;15.07;87.70
73817;BME280;62146;53.232;-1.304;2022-10-16T09:47:26;99825.59;;;15.20;87.71
73817;BME280;62146;53.232;-1.304;2022-10-16T09:50:03;99837.50;;;15.32;87.79
73817;BME280;62146;53.232;-1.304;2022-10-16T09:52:33;99841.66;;;15.43;87.52
73817;BME280;62146;53.232;-1.304;2022-10-16T09:55:16;99851.94;;;15.54;87.32
73817;BME280;62146;53.232;-1.304;2022-10-16T09:57:54;99850.75;;;15.65;87.24
73817;BME280;62146;53.232;-1.304;2022-10-16T10:00:22;99852.22;;;15.76;87.52
73817;BME280;62146;53.232;-1.304;2022-10-16T10:02:49;99858.75;;;15.88;87.37
73817;BME280;62146;53.232;-1.304;2022-10-16T10:05:27;99860.72;;;16.01;87.15
73817;BME280;62146;53.232;-1.304;2022-10-16T10:08:01;99875.03;;;16.15;87.40
73817;BME280;62146;53.232;-1.304;2022-10-16T10:10:36;99873.53;;;16.27;87.08
73817;BME280;62146;53.232;-1.304;2022-10-16T10:13:17;99881.13;;;16.38;87.25
73817;BME280;62146;53.232;-1.304;2022-10-16T10:15:45;99879.28;;;16.52;87.12
73817;BME280;62146;53.232;-1.304;2022-10-16T10:18:17;99896.47;;;16.69;87.52
73817;BME280;62146;53.232;-1.304;2022-10-16T10:20:45;99901.28;;;16.86;87.27
73817;BME280;62146;53.232;-1.304;2022-10-16T10:23:23;99915.44;;;17.04;87.22
73817;BME280;62146;53.232;-1.304;2022-10-16T10:26:09;99911.97;;;17.22;87.03
73817;BME280;62146;53.232;-1.304;2022-10-16T10:31:21;99903.91;;;17.53;86.96
73817;BME280;62146;53.232;-1.304;2022-10-16T10:36:40;99893.50;;;17.78;86.59
73817;BME280;62146;53.232;-1.304;2022-10-16T10:39:28;99903.91;;;17.93;86.29
73817;BME280;62146;53.232;-1.304;2022-10-16T10:44:57;99919.56;;;18.18;85.52
73817;BME280;62146;53.232;-1.304;2022-10-16T10:47:46;99919.84;;;18.29;85.39
73817;BME280;62146;53.232;-1.304;2022-10-16T10:50:22;99920.44;;;18.40;85.30
73817;BME280;62146;53.232;-1.304;2022-10-16T11:01:31;99931.66;;;18.90;84.42
73817;BME280;62146;53.232;-1.304;2022-10-16T11:04:20;99927.91;;;18.99;83.45
73817;BME280;62146;53.232;-1.304;2022-10-16T11:07:05;99931.19;;;19.09;83.82
73817;BME280;62146;53.232;-1.304;2022-10-16T11:09:40;99929.66;;;19.17;83.29
73817;BME280;62146;53.232;-1.304;2022-10-16T11:12:17;99921.31;;;19.27;83.31
73817;BME280;62146;53.232;-1.304;2022-10-16T11:14:55;99929.28;;;19.32;82.63
73817;BME280;62146;53.232;-1.304;2022-10-16T11:17:33;99922.97;;;19.36;82.53
73817;BME280;62146;53.232;-1.304;2022-10-16T11:23:02;99919.53;;;19.44;81.85
73817;BME280;62146;53.232;-1.304;2022-10-16T11:25:33;99914.63;;;19.46;82.30
73817;BME280;62146;53.232;-1.304;2022-10-16T11:28:20;99916.84;;;19.44;81.71
73817;BME280;62146;53.232;-1.304;2022-10-16T11:33:43;99909.25;;;19.46;81.43
73817;BME280;62146;53.232;-1.304;2022-10-16T11:36:16;99910.09;;;19.55;81.71
73817;BME280;62146;53.232;-1.304;2022-10-16T11:39:10;99913.63;;;19.63;80.99
73817;BME280;62146;53.232;-1.304;2022-10-16T11:50:09;99918.22;;;19.93;79.27
73817;BME280;62146;53.232;-1.304;2022-10-16T11:52:46;99926.94;;;19.98;79.23
73817;BME280;62146;53.232;-1.304;2022-10-16T11:55:21;99929.38;;;20.08;78.40
73817;BME280;62146;53.232;-1.304;2022-10-16T11:57:58;99938.75;;;20.19;78.12
73817;BME280;62146;53.232;-1.304;2022-10-16T12:03:39;99930.44;;;20.45;76.88
73817;BME280;62146;53.232;-1.304;2022-10-16T12:06:25;99931.59;;;20.61;76.33
73817;BME280;62146;53.232;-1.304;2022-10-16T12:08:53;99928.72;;;20.74;75.92
73817;BME280;62146;53.232;-1.304;2022-10-16T12:11:32;99936.19;;;20.86;75.78
73817;BME280;62146;53.232;-1.304;2022-10-16T12:16:54;99933.50;;;20.94;75.94
73817;BME280;62146;53.232;-1.304;2022-10-16T12:19:22;99939.38;;;20.96;76.63
73817;BME280;62146;53.232;-1.304;2022-10-16T12:21:50;99941.91;;;21.01;76.21
73817;BME280;62146;53.232;-1.304;2022-10-16T12:24:38;99946.66;;;21.04;75.94
73817;BME280;62146;53.232;-1.304;2022-10-16T12:27:30;99947.00;;;21.11;76.38
73817;BME280;62146;53.232;-1.304;2022-10-16T12:30:00;99958.56;;;21.11;75.80
73817;BME280;62146;53.232;-1.304;2022-10-16T12:32:34;99965.53;;;21.12;76.07
73817;BME280;62146;53.232;-1.304;2022-10-16T12:35:20;99960.00;;;21.09;76.18
73817;BME280;62146;53.232;-1.304;2022-10-16T12:37:48;99953.97;;;21.03;75.97
73817;BME280;62146;53.232;-1.304;2022-10-16T12:42:48;99960.66;;;21.06;75.86
73817;BME280;62146;53.232;-1.304;2022-10-16T12:45:32;99966.19;;;21.18;75.22
73817;BME280;62146;53.232;-1.304;2022-10-16T12:48:03;99970.47;;;21.27;75.09
73817;BME280;62146;53.232;-1.304;2022-10-16T12:50:43;99971.75;;;21.38;75.41
73817;BME280;62146;53.232;-1.304;2022-10-16T12:53:23;99977.63;;;21.48;75.19
73817;BME280;62146;53.232;-1.304;2022-10-16T12:56:05;99972.50;;;21.55;74.65
73817;BME280;62146;53.232;-1.304;2022-10-16T13:01:28;99969.34;;;21.53;74.89
73817;BME280;62146;53.232;-1.304;2022-10-16T13:04:10;99966.69;;;21.45;75.10
73817;BME280;62146;53.232;-1.304;2022-10-16T13:09:37;99963.34;;;21.14;74.30
73817;BME280;62146;53.232;-1.304;2022-10-16T13:28:01;99960.31;;;20.27;72.56
73817;BME280;62146;53.232;-1.304;2022-10-16T13:30:44;99965.19;;;20.17;72.79
73817;BME280;62146;53.232;-1.304;2022-10-16T13:33:21;99963.88;;;20.06;72.61
73817;BME280;62146;53.232;-1.304;2022-10-16T13:35:55;99959.44;;;20.02;72.51
73817;BME280;62146;53.232;-1.304;2022-10-16T13:38:34;99959.25;;;19.98;72.21
73817;BME280;62146;53.232;-1.304;2022-10-16T13:41:06;99962.44;;;20.00;72.09
73817;BME280;62146;53.232;-1.304;2022-10-16T13:43:43;99966.91;;;20.05;72.14
73817;BME280;62146;53.232;-1.304;2022-10-16T13:48:41;99950.97;;;20.25;71.09
73817;BME280;62146;53.232;-1.304;2022-10-16T13:51:16;99936.28;;;20.39;71.14
73817;BME280;62146;53.232;-1.304;2022-10-16T13:53:44;99945.06;;;20.53;71.05
73817;BME280;62146;53.232;-1.304;2022-10-16T13:56:14;99945.41;;;20.68;70.65
73817;BME280;62146;53.232;-1.304;2022-10-16T13:58:43;99965.69;;;20.82;71.07
73817;BME280;62146;53.232;-1.304;2022-10-16T14:01:28;99958.09;;;20.93;70.91
73817;BME280;62146;53.232;-1.304;2022-10-16T14:04:07;99966.00;;;20.97;70.72
73817;BME280;62146;53.232;-1.304;2022-10-16T14:06:35;99967.13;;;20.96;71.21
73817;BME280;62146;53.232;-1.304;2022-10-16T14:09:08;99963.31;;;20.89;71.34
73817;BME280;62146;53.232;-1.304;2022-10-16T14:11:43;99956.97;;;20.77;71.68
73817;BME280;62146;53.232;-1.304;2022-10-16T14:14:12;99962.81;;;20.62;71.78
73817;BME280;62146;53.232;-1.304;2022-10-16T14:16:40;99969.31;;;20.53;71.91
73817;BME280;62146;53.232;-1.304;2022-10-16T14:21:46;99969.72;;;20.46;71.42
73817;BME280;62146;53.232;-1.304;2022-10-16T14:24:25;99974.34;;;20.46;72.18
73817;BME280;62146;53.232;-1.304;2022-10-16T14:26:52;99974.63;;;20.44;72.24
73817;BME280;62146;53.232;-1.304;2022-10-16T14:29:22;99976.84;;;20.42;72.60
73817;BME280;62146;53.232;-1.304;2022-10-16T14:32:03;99981.13;;;20.43;72.64
73817;BME280;62146;53.232;-1.304;2022-10-16T14:34:31;99979.56;;;20.42;72.48
73817;BME280;62146;53.232;-1.304;2022-10-16T14:37:26;99965.75;;;20.44;72.91
73817;BME280;62146;53.232;-1.304;2022-10-16T14:39:54;99966.72;;;20.48;72.96
73817;BME280;62146;53.232;-1.304;2022-10-16T14:42:24;99971.00;;;20.49;72.71
73817;BME280;62146;53.232;-1.304;2022-10-16T14:44:53;99974.50;;;20.49;72.94